sensor_id;sensor_type;location;lat;lon;timestamp;P1;durP1;ratioP1;P2;durP2;ratioP2
27704;SDS011;15109;50.992;6.918;2022-10-18T00:02:36;4.18;;;1.00;;
27704;SDS011;15109;50.992;6.918;2022-10-18T00:05:58;1.65;;;1.13;;
27704;SDS011;15109;50.992;6.918;2022-10-18T00:09:19;4.18;;;2.13;;
27704;SDS011;15109;50.992;6.918;2022-10-18T00:12:43;3.30;;;1.83;;
27704;SDS011;15109;50.992;6.918;2022-10-18T00:16:04;3.88;;;2.30;;
27704;SDS011;15109;50.992;6.918;2022-10-18T00:19:31;2.00;;;1.13;;
27704;SDS011;15109;50.992;6.918;2022-10-18T00:22:53;1.98;;;1.25;;
27704;SDS011;15109;50.992;6.918;2022-10-18T00:26:15;3.67;;;2.15;;
27704;SDS011;15109;50.992;6.918;2022-10-18T00:29:42;2.58;;;1.48;;
27704;SDS011;15109;50.992;6.918;2022-10-18T00:33:03;1.60;;;1.15;;
27704;SDS011;15109;50.992;6.918;2022-10-18T00:36:24;2.95;;;1.80;;
27704;SDS011;15109;50.992;6.918;2022-10-18T00:39:47;2.90;;;1.65;;
27704;SDS011;15109;50.992;6.918;2022-10-18T00:43:10;6.13;;;2.20;;
27704;SDS011;15109;50.992;6.918;2022-10-18T00:46:36;3.80;;;1.73;;
27704;SDS011;15109;50.992;6.918;2022-10-18T00:50:02;3.30;;;1.90;;
27704;SDS011;15109;50.992;6.918;2022-10-18T00:53:25;2.30;;;1.35;;
27704;SDS011;15109;50.992;6.918;2022-10-18T00:56:46;2.33;;;1.50;;
27704;SDS011;15109;50.992;6.918;2022-10-18T01:00:07;4.68;;;2.30;;
27704;SDS011;15109;50.992;6.918;2022-10-18T01:03:29;3.15;;;2.13;;
27704;SDS011;15109;50.992;6.918;2022-10-18T01:06:58;5.40;;;2.53;;
27704;SDS011;15109;50.992;6.918;2022-10-18T01:10:48;3.70;;;2.25;;
27704;SDS011;15109;50.992;6.918;2022-10-18T01:14:33;12.23;;;3.00;;
27704;SDS011;15109;50.992;6.918;2022-10-18T01:18:15;5.10;;;2.45;;
27704;SDS011;15109;50.992;6.918;2022-10-18T01:25:17;2.42;;;1.50;;
27704;SDS011;15109;50.992;6.918;2022-10-18T01:28:57;5.22;;;2.60;;
27704;SDS011;15109;50.992;6.918;2022-10-18T01:32:38;4.90;;;2.85;;
27704;SDS011;15109;50.992;6.918;2022-10-18T01:36:20;3.80;;;2.17;;
27704;SDS011;15109;50.992;6.918;2022-10-18T01:43:04;4.78;;;2.22;;
27704;SDS011;15109;50.992;6.918;2022-10-18T01:46:28;2.58;;;1.60;;
27704;SDS011;15109;50.992;6.918;2022-10-18T01:49:55;9.65;;;2.55;;
27704;SDS011;15109;50.992;6.918;2022-10-18T01:53:20;2.45;;;1.63;;
27704;SDS011;15109;50.992;6.918;2022-10-18T02:00:28;3.58;;;2.28;;
27704;SDS011;15109;50.992;6.918;2022-10-18T02:03:57;6.18;;;2.67;;
27704;SDS011;15109;50.992;6.918;2022-10-18T02:11:19;3.78;;;2.42;;
27704;SDS011;15109;50.992;6.918;2022-10-18T02:14:43;5.05;;;2.40;;
27704;SDS011;15109;50.992;6.918;2022-10-18T02:18:10;3.10;;;2.08;;
27704;SDS011;15109;50.992;6.918;2022-10-18T02:21:35;3.95;;;2.15;;
27704;SDS011;15109;50.992;6.918;2022-10-18T02:24:59;2.53;;;1.55;;
27704;SDS011;15109;50.992;6.918;2022-10-18T02:28:24;4.68;;;2.70;;
27704;SDS011;15109;50.992;6.918;2022-10-18T02:31:47;3.10;;;1.88;;
27704;SDS011;15109;50.992;6.918;2022-10-18T02:38:55;4.75;;;2.60;;
27704;SDS011;15109;50.992;6.918;2022-10-18T02:42:21;4.35;;;2.40;;
27704;SDS011;15109;50.992;6.918;2022-10-18T02:45:42;4.38;;;2.42;;
27704;SDS011;15109;50.992;6.918;2022-10-18T02:49:03;4.18;;;2.50;;
27704;SDS011;15109;50.992;6.918;2022-10-18T02:52:24;4.55;;;2.60;;
27704;SDS011;15109;50.992;6.918;2022-10-18T02:55:45;12.18;;;2.90;;
27704;SDS011;15109;50.992;6.918;2022-10-18T02:59:06;6.63;;;3.15;;
27704;SDS011;15109;50.992;6.918;2022-10-18T03:02:27;5.88;;;2.83;;
27704;SDS011;15109;50.992;6.918;2022-10-18T03:05:49;3.80;;;2.10;;
27704;SDS011;15109;50.992;6.918;2022-10-18T03:09:10;5.28;;;2.90;;
27704;SDS011;15109;50.992;6.918;2022-10-18T03:12:31;6.22;;;2.95;;
27704;SDS011;15109;50.992;6.918;2022-10-18T03:15:52;4.78;;;2.75;;
27704;SDS011;15109;50.992;6.918;2022-10-18T03:19:13;5.28;;;2.70;;
27704;SDS011;15109;50.992;6.918;2022-10-18T03:22:34;4.63;;;2.90;;
27704;SDS011;15109;50.992;6.918;2022-10-18T03:25:55;5.20;;;2.85;;
27704;SDS011;15109;50.992;6.918;2022-10-18T03:29:16;5.22;;;2.83;;
27704;SDS011;15109;50.992;6.918;2022-10-18T03:32:37;3.63;;;2.10;;
27704;SDS011;15109;50.992;6.918;2022-10-18T03:35:59;3.75;;;2.63;;
27704;SDS011;15109;50.992;6.918;2022-10-18T03:39:20;4.18;;;2.33;;
27704;SDS011;15109;50.992;6.918;2022-10-18T03:42:41;6.25;;;2.88;;
27704;SDS011;15109;50.992;6.918;2022-10-18T03:46:02;4.95;;;2.50;;
27704;SDS011;15109;50.992;6.918;2022-10-18T03:49:23;4.68;;;2.63;;
27704;SDS011;15109;50.992;6.918;2022-10-18T03:52:45;6.75;;;3.10;;
27704;SDS011;15109;50.992;6.918;2022-10-18T03:56:06;4.78;;;2.33;;
27704;SDS011;15109;50.992;6.918;2022-10-18T03:59:27;4.30;;;2.38;;
27704;SDS011;15109;50.992;6.918;2022-10-18T04:02:48;3.30;;;2.17;;
27704;SDS011;15109;50.992;6.918;2022-10-18T04:06:12;3.65;;;2.40;;
27704;SDS011;15109;50.992;6.918;2022-10-18T04:09:33;5.32;;;2.67;;
27704;SDS011;15109;50.992;6.918;2022-10-18T04:12:54;5.15;;;2.80;;
27704;SDS011;15109;50.992;6.918;2022-10-18T04:16:15;3.08;;;1.67;;
27704;SDS011;15109;50.992;6.918;2022-10-18T04:19:36;4.57;;;2.53;;
27704;SDS011;15109;50.992;6.918;2022-10-18T04:22:57;4.30;;;2.97;;
27704;SDS011;15109;50.992;6.918;2022-10-18T04:26:18;5.68;;;3.10;;
27704;SDS011;15109;50.992;6.918;2022-10-18T04:29:39;4.07;;;2.40;;
27704;SDS011;15109;50.992;6.918;2022-10-18T04:33:00;5.55;;;2.97;;
27704;SDS011;15109;50.992;6.918;2022-10-18T04:36:21;5.28;;;2.88;;
27704;SDS011;15109;50.992;6.918;2022-10-18T04:39:42;6.57;;;3.38;;
27704;SDS011;15109;50.992;6.918;2022-10-18T04:43:06;3.95;;;1.98;;
27704;SDS011;15109;50.992;6.918;2022-10-18T04:46:27;4.75;;;2.63;;
27704;SDS011;15109;50.992;6.918;2022-10-18T04:49:48;3.97;;;2.30;;
27704;SDS011;15109;50.992;6.918;2022-10-18T04:53:09;5.45;;;2.92;;
27704;SDS011;15109;50.992;6.918;2022-10-18T04:56:30;5.35;;;2.72;;
27704;SDS011;15109;50.992;6.918;2022-10-18T04:59:52;8.43;;;2.88;;
27704;SDS011;15109;50.992;6.918;2022-10-18T05:03:15;5.65;;;2.50;;
27704;SDS011;15109;50.992;6.918;2022-10-18T05:06:37;5.32;;;2.55;;
27704;SDS011;15109;50.992;6.918;2022-10-18T05:09:58;5.03;;;2.42;;
27704;SDS011;15109;50.992;6.918;2022-10-18T05:13:19;8.35;;;3.53;;
27704;SDS011;15109;50.992;6.918;2022-10-18T05:16:40;2.75;;;1.83;;
27704;SDS011;15109;50.992;6.918;2022-10-18T05:20:05;4.53;;;2.33;;
27704;SDS011;15109;50.992;6.918;2022-10-18T05:23:26;4.72;;;2.95;;
27704;SDS011;15109;50.992;6.918;2022-10-18T05:26:47;4.50;;;2.65;;
27704;SDS011;15109;50.992;6.918;2022-10-18T05:30:08;6.82;;;3.40;;
27704;SDS011;15109;50.992;6.918;2022-10-18T05:33:30;7.55;;;2.90;;
27704;SDS011;15109;50.992;6.918;2022-10-18T05:36:51;6.18;;;2.97;;
27704;SDS011;15109;50.992;6.918;2022-10-18T05:40:12;6.32;;;3.28;;
27704;SDS011;15109;50.992;6.918;2022-10-18T05:43:33;5.45;;;2.75;;
27704;SDS011;15109;50.992;6.918;2022-10-18T05:46:54;4.35;;;2.35;;
27704;SDS011;15109;50.992;6.918;2022-10-18T05:50:15;6.55;;;3.35;;
27704;SDS011;15109;50.992;6.918;2022-10-18T05:53:37;5.55;;;2.95;;
27704;SDS011;15109;50.992;6.918;2022-10-18T05:56:58;4.03;;;2.38;;
27704;SDS011;15109;50.992;6.918;2022-10-18T06:00:19;5.65;;;2.65;;
27704;SDS011;15109;50.992;6.918;2022-10-18T06:03:40;5.65;;;2.85;;
27704;SDS011;15109;50.992;6.918;2022-10-18T06:07:01;4.88;;;2.75;;
27704;SDS011;15109;50.992;6.918;2022-10-18T06:10:22;6.50;;;2.72;;
27704;SDS011;15109;50.992;6.918;2022-10-18T06:13:44;4.07;;;2.38;;
27704;SDS011;15109;50.992;6.918;2022-10-18T06:17:07;4.43;;;2.83;;
27704;SDS011;15109;50.992;6.918;2022-10-18T06:20:28;3.95;;;2.70;;
27704;SDS011;15109;50.992;6.918;2022-10-18T06:23:53;5.22;;;3.17;;
27704;SDS011;15109;50.992;6.918;2022-10-18T06:27:15;9.03;;;3.80;;
27704;SDS011;15109;50.992;6.918;2022-10-18T06:30:36;5.03;;;3.10;;
27704;SDS011;15109;50.992;6.918;2022-10-18T06:33:57;17.08;;;3.80;;
27704;SDS011;15109;50.992;6.918;2022-10-18T06:37:18;5.07;;;3.10;;
27704;SDS011;15109;50.992;6.918;2022-10-18T06:40:39;6.72;;;3.40;;
27704;SDS011;15109;50.992;6.918;2022-10-18T06:44:00;5.55;;;2.70;;
27704;SDS011;15109;50.992;6.918;2022-10-18T06:47:26;7.20;;;3.03;;
27704;SDS011;15109;50.992;6.918;2022-10-18T06:50:51;5.63;;;2.88;;
27704;SDS011;15109;50.992;6.918;2022-10-18T06:54:14;6.60;;;3.55;;
27704;SDS011;15109;50.992;6.918;2022-10-18T06:57:36;4.50;;;2.63;;
27704;SDS011;15109;50.992;6.918;2022-10-18T07:00:57;6.45;;;3.22;;
27704;SDS011;15109;50.992;6.918;2022-10-18T07:04:18;4.97;;;2.40;;
27704;SDS011;15109;50.992;6.918;2022-10-18T07:07:39;5.05;;;2.75;;
27704;SDS011;15109;50.992;6.918;2022-10-18T07:11:00;7.05;;;3.50;;
27704;SDS011;15109;50.992;6.918;2022-10-18T07:14:22;5.63;;;3.08;;
27704;SDS011;15109;50.992;6.918;2022-10-18T07:17:43;5.80;;;2.90;;
27704;SDS011;15109;50.992;6.918;2022-10-18T07:21:08;7.30;;;3.08;;
27704;SDS011;15109;50.992;6.918;2022-10-18T07:24:31;5.93;;;3.33;;
27704;SDS011;15109;50.992;6.918;2022-10-18T07:27:52;6.57;;;3.42;;
27704;SDS011;15109;50.992;6.918;2022-10-18T07:31:13;5.43;;;2.95;;
27704;SDS011;15109;50.992;6.918;2022-10-18T07:34:34;3.97;;;2.47;;
27704;SDS011;15109;50.992;6.918;2022-10-18T07:37:55;5.15;;;3.13;;
27704;SDS011;15109;50.992;6.918;2022-10-18T07:41:16;10.07;;;4.45;;
27704;SDS011;15109;50.992;6.918;2022-10-18T07:44:38;6.00;;;3.45;;
27704;SDS011;15109;50.992;6.918;2022-10-18T07:47:59;10.52;;;4.53;;
27704;SDS011;15109;50.992;6.918;2022-10-18T07:51:20;9.00;;;4.72;;
27704;SDS011;15109;50.992;6.918;2022-10-18T07:54:41;10.00;;;4.65;;
27704;SDS011;15109;50.992;6.918;2022-10-18T07:58:02;15.68;;;7.28;;
27704;SDS011;15109;50.992;6.918;2022-10-18T08:01:23;10.55;;;5.75;;
27704;SDS011;15109;50.992;6.918;2022-10-18T08:04:45;14.63;;;7.07;;
27704;SDS011;15109;50.992;6.918;2022-10-18T08:08:06;11.85;;;6.05;;
27704;SDS011;15109;50.992;6.918;2022-10-18T08:11:27;14.70;;;7.38;;
27704;SDS011;15109;50.992;6.918;2022-10-18T08:14:48;16.33;;;7.80;;
27704;SDS011;15109;50.992;6.918;2022-10-18T08:18:09;14.50;;;7.95;;
27704;SDS011;15109;50.992;6.918;2022-10-18T08:21:31;13.07;;;6.93;;
27704;SDS011;15109;50.992;6.918;2022-10-18T08:24:52;23.67;;;7.80;;
27704;SDS011;15109;50.992;6.918;2022-10-18T08:28:13;17.25;;;7.53;;
27704;SDS011;15109;50.992;6.918;2022-10-18T08:31:34;13.10;;;5.85;;
27704;SDS011;15109;50.992;6.918;2022-10-18T08:34:55;20.30;;;7.45;;
27704;SDS011;15109;50.992;6.918;2022-10-18T08:38:16;12.07;;;6.57;;
27704;SDS011;15109;50.992;6.918;2022-10-18T08:45:07;15.23;;;6.32;;
27704;SDS011;15109;50.992;6.918;2022-10-18T08:48:36;20.27;;;7.38;;
27704;SDS011;15109;50.992;6.918;2022-10-18T08:52:00;20.88;;;8.57;;
27704;SDS011;15109;50.992;6.918;2022-10-18T08:55:41;13.57;;;7.35;;
27704;SDS011;15109;50.992;6.918;2022-10-18T08:59:08;16.00;;;7.05;;
27704;SDS011;15109;50.992;6.918;2022-10-18T09:06:11;17.70;;;8.25;;
27704;SDS011;15109;50.992;6.918;2022-10-18T09:13:09;18.63;;;8.73;;
27704;SDS011;15109;50.992;6.918;2022-10-18T09:16:53;26.50;;;9.77;;
27704;SDS011;15109;50.992;6.918;2022-10-18T09:20:59;24.83;;;8.38;;
27704;SDS011;15109;50.992;6.918;2022-10-18T09:27:55;17.40;;;9.38;;
27704;SDS011;15109;50.992;6.918;2022-10-18T09:31:33;16.90;;;7.97;;
27704;SDS011;15109;50.992;6.918;2022-10-18T09:35:23;22.23;;;8.10;;
27704;SDS011;15109;50.992;6.918;2022-10-18T09:38:50;20.13;;;8.50;;
27704;SDS011;15109;50.992;6.918;2022-10-18T09:45:52;19.13;;;7.85;;
27704;SDS011;15109;50.992;6.918;2022-10-18T09:49:17;17.73;;;8.27;;
27704;SDS011;15109;50.992;6.918;2022-10-18T09:52:50;18.33;;;8.20;;
27704;SDS011;15109;50.992;6.918;2022-10-18T09:59:52;18.70;;;7.05;;
27704;SDS011;15109;50.992;6.918;2022-10-18T10:03:13;13.82;;;6.57;;
27704;SDS011;15109;50.992;6.918;2022-10-18T10:06:35;12.85;;;6.97;;
27704;SDS011;15109;50.992;6.918;2022-10-18T10:10:04;16.42;;;6.88;;
27704;SDS011;15109;50.992;6.918;2022-10-18T10:13:34;14.68;;;6.95;;
27704;SDS011;15109;50.992;6.918;2022-10-18T10:17:05;22.52;;;9.90;;
27704;SDS011;15109;50.992;6.918;2022-10-18T10:28:15;28.17;;;8.10;;
27704;SDS011;15109;50.992;6.918;2022-10-18T10:31:39;15.82;;;8.07;;
27704;SDS011;15109;50.992;6.918;2022-10-18T10:35:01;20.33;;;8.30;;
27704;SDS011;15109;50.992;6.918;2022-10-18T10:38:25;15.10;;;7.57;;
27704;SDS011;15109;50.992;6.918;2022-10-18T10:41:57;18.27;;;8.60;;
27704;SDS011;15109;50.992;6.918;2022-10-18T10:45:20;14.88;;;8.07;;
27704;SDS011;15109;50.992;6.918;2022-10-18T10:48:45;15.00;;;8.80;;
27704;SDS011;15109;50.992;6.918;2022-10-18T10:52:16;13.05;;;7.03;;
27704;SDS011;15109;50.992;6.918;2022-10-18T10:55:43;18.52;;;9.80;;
27704;SDS011;15109;50.992;6.918;2022-10-18T10:59:06;14.20;;;7.15;;
27704;SDS011;15109;50.992;6.918;2022-10-18T11:02:32;23.08;;;9.98;;
27704;SDS011;15109;50.992;6.918;2022-10-18T11:05:55;23.03;;;9.90;;
27704;SDS011;15109;50.992;6.918;2022-10-18T11:09:29;21.38;;;8.57;;
27704;SDS011;15109;50.992;6.918;2022-10-18T11:21:03;13.57;;;8.30;;
27704;SDS011;15109;50.992;6.918;2022-10-18T11:24:27;17.45;;;8.20;;
27704;SDS011;15109;50.992;6.918;2022-10-18T11:27:53;14.82;;;9.07;;
27704;SDS011;15109;50.992;6.918;2022-10-18T11:31:26;14.75;;;8.52;;
27704;SDS011;15109;50.992;6.918;2022-10-18T11:38:55;18.20;;;9.98;;
27704;SDS011;15109;50.992;6.918;2022-10-18T12:05:15;23.48;;;12.65;;
27704;SDS011;15109;50.992;6.918;2022-10-18T12:08:38;15.25;;;10.60;;
27704;SDS011;15109;50.992;6.918;2022-10-18T12:15:43;22.55;;;10.32;;
27704;SDS011;15109;50.992;6.918;2022-10-18T12:19:06;19.25;;;11.75;;
27704;SDS011;15109;50.992;6.918;2022-10-18T12:22:43;22.17;;;13.88;;
27704;SDS011;15109;50.992;6.918;2022-10-18T12:26:09;24.08;;;13.55;;
27704;SDS011;15109;50.992;6.918;2022-10-18T12:29:35;36.38;;;15.20;;
27704;SDS011;15109;50.992;6.918;2022-10-18T12:33:23;30.17;;;14.57;;
27704;SDS011;15109;50.992;6.918;2022-10-18T12:44:01;25.92;;;15.07;;
27704;SDS011;15109;50.992;6.918;2022-10-18T12:47:25;25.05;;;13.18;;
27704;SDS011;15109;50.992;6.918;2022-10-18T12:50:49;26.30;;;13.75;;
27704;SDS011;15109;50.992;6.918;2022-10-18T12:54:23;21.60;;;13.10;;
27704;SDS011;15109;50.992;6.918;2022-10-18T13:01:11;19.17;;;10.98;;
27704;SDS011;15109;50.992;6.918;2022-10-18T13:04:32;29.00;;;14.93;;
27704;SDS011;15109;50.992;6.918;2022-10-18T13:07:55;19.58;;;11.75;;
27704;SDS011;15109;50.992;6.918;2022-10-18T13:15:20;19.13;;;10.98;;
27704;SDS011;15109;50.992;6.918;2022-10-18T13:22:58;17.45;;;9.32;;
27704;SDS011;15109;50.992;6.918;2022-10-18T13:33:53;10.88;;;6.38;;
27704;SDS011;15109;50.992;6.918;2022-10-18T13:40:31;14.48;;;6.35;;
27704;SDS011;15109;50.992;6.918;2022-10-18T13:51:00;12.00;;;6.25;;
27704;SDS011;15109;50.992;6.918;2022-10-18T13:54:42;9.15;;;4.70;;
27704;SDS011;15109;50.992;6.918;2022-10-18T14:01:59;11.10;;;4.13;;
27704;SDS011;15109;50.992;6.918;2022-10-18T14:09:19;6.88;;;3.42;;
27704;SDS011;15109;50.992;6.918;2022-10-18T14:12:44;9.07;;;5.10;;
27704;SDS011;15109;50.992;6.918;2022-10-18T14:20:15;5.65;;;3.03;;
27704;SDS011;15109;50.992;6.918;2022-10-18T14:23:43;7.90;;;2.40;;
27704;SDS011;15109;50.992;6.918;2022-10-18T14:30:49;8.65;;;3.65;;
27704;SDS011;15109;50.992;6.918;2022-10-18T14:34:17;6.80;;;3.33;;
27704;SDS011;15109;50.992;6.918;2022-10-18T14:37:38;10.13;;;4.97;;
27704;SDS011;15109;50.992;6.918;2022-10-18T14:41:04;10.00;;;5.07;;
27704;SDS011;15109;50.992;6.918;2022-10-18T14:44:27;5.70;;;3.50;;
27704;SDS011;15109;50.992;6.918;2022-10-18T14:47:49;11.50;;;5.65;;
27704;SDS011;15109;50.992;6.918;2022-10-18T14:51:11;7.53;;;4.13;;
27704;SDS011;15109;50.992;6.918;2022-10-18T14:54:37;5.03;;;2.90;;
27704;SDS011;15109;50.992;6.918;2022-10-18T14:57:58;8.02;;;3.50;;
27704;SDS011;15109;50.992;6.918;2022-10-18T15:01:21;7.65;;;4.03;;
27704;SDS011;15109;50.992;6.918;2022-10-18T15:04:45;5.50;;;2.72;;
27704;SDS011;15109;50.992;6.918;2022-10-18T15:08:13;6.15;;;3.50;;
27704;SDS011;15109;50.992;6.918;2022-10-18T15:11:34;5.13;;;2.75;;
27704;SDS011;15109;50.992;6.918;2022-10-18T15:14:56;4.75;;;2.28;;
27704;SDS011;15109;50.992;6.918;2022-10-18T15:18:20;4.50;;;2.17;;
27704;SDS011;15109;50.992;6.918;2022-10-18T15:21:53;2.92;;;1.45;;
27704;SDS011;15109;50.992;6.918;2022-10-18T15:25:27;5.60;;;2.97;;
27704;SDS011;15109;50.992;6.918;2022-10-18T15:28:54;4.97;;;1.95;;
27704;SDS011;15109;50.992;6.918;2022-10-18T15:32:23;4.93;;;1.85;;
27704;SDS011;15109;50.992;6.918;2022-10-18T15:35:48;6.13;;;2.40;;
27704;SDS011;15109;50.992;6.918;2022-10-18T15:39:16;6.30;;;2.10;;
27704;SDS011;15109;50.992;6.918;2022-10-18T15:42:39;2.53;;;1.35;;
27704;SDS011;15109;50.992;6.918;2022-10-18T15:46:01;2.13;;;1.45;;
27704;SDS011;15109;50.992;6.918;2022-10-18T15:52:44;4.68;;;1.63;;
27704;SDS011;15109;50.992;6.918;2022-10-18T15:56:06;5.00;;;1.67;;
27704;SDS011;15109;50.992;6.918;2022-10-18T15:59:30;3.15;;;1.70;;
27704;SDS011;15109;50.992;6.918;2022-10-18T16:02:57;3.67;;;1.48;;
27704;SDS011;15109;50.992;6.918;2022-10-18T16:06:18;6.82;;;2.30;;
27704;SDS011;15109;50.992;6.918;2022-10-18T16:09:39;12.98;;;2.40;;
27704;SDS011;15109;50.992;6.918;2022-10-18T16:13:00;3.83;;;2.17;;
27704;SDS011;15109;50.992;6.918;2022-10-18T16:16:23;5.88;;;1.98;;
27704;SDS011;15109;50.992;6.918;2022-10-18T16:19:49;7.63;;;1.77;;
27704;SDS011;15109;50.992;6.918;2022-10-18T16:23:20;2.08;;;1.23;;
27704;SDS011;15109;50.992;6.918;2022-10-18T16:26:44;6.05;;;1.42;;
27704;SDS011;15109;50.992;6.918;2022-10-18T16:30:09;3.67;;;1.92;;
27704;SDS011;15109;50.992;6.918;2022-10-18T16:33:33;3.35;;;1.48;;
27704;SDS011;15109;50.992;6.918;2022-10-18T16:36:56;2.72;;;1.80;;
27704;SDS011;15109;50.992;6.918;2022-10-18T16:40:19;2.20;;;1.13;;
27704;SDS011;15109;50.992;6.918;2022-10-18T16:43:43;3.47;;;1.48;;
27704;SDS011;15109;50.992;6.918;2022-10-18T16:47:07;3.33;;;1.85;;
27704;SDS011;15109;50.992;6.918;2022-10-18T16:50:30;2.95;;;1.65;;
27704;SDS011;15109;50.992;6.918;2022-10-18T16:53:51;2.65;;;1.38;;
27704;SDS011;15109;50.992;6.918;2022-10-18T16:57:15;2.65;;;1.48;;
27704;SDS011;15109;50.992;6.918;2022-10-18T17:00:36;3.75;;;1.77;;
27704;SDS011;15109;50.992;6.918;2022-10-18T17:03:58;5.18;;;2.08;;
27704;SDS011;15109;50.992;6.918;2022-10-18T17:07:21;4.47;;;1.67;;
27704;SDS011;15109;50.992;6.918;2022-10-18T17:10:44;3.45;;;1.95;;
27704;SDS011;15109;50.992;6.918;2022-10-18T17:14:05;4.35;;;1.98;;
27704;SDS011;15109;50.992;6.918;2022-10-18T17:17:26;4.28;;;2.53;;
27704;SDS011;15109;50.992;6.918;2022-10-18T17:20:48;6.50;;;1.88;;
27704;SDS011;15109;50.992;6.918;2022-10-18T17:24:09;2.85;;;1.30;;
27704;SDS011;15109;50.992;6.918;2022-10-18T17:27:30;7.40;;;1.85;;
27704;SDS011;15109;50.992;6.918;2022-10-18T17:30:51;5.43;;;1.95;;
27704;SDS011;15109;50.992;6.918;2022-10-18T17:34:12;8.88;;;2.83;;
27704;SDS011;15109;50.992;6.918;2022-10-18T17:37:33;4.68;;;2.30;;
27704;SDS011;15109;50.992;6.918;2022-10-18T17:40:54;8.73;;;2.67;;
27704;SDS011;15109;50.992;6.918;2022-10-18T17:44:16;5.40;;;2.55;;
27704;SDS011;15109;50.992;6.918;2022-10-18T17:47:37;4.28;;;1.98;;
27704;SDS011;15109;50.992;6.918;2022-10-18T17:50:58;3.85;;;1.90;;
27704;SDS011;15109;50.992;6.918;2022-10-18T17:54:19;3.22;;;1.23;;
27704;SDS011;15109;50.992;6.918;2022-10-18T17:57:41;5.25;;;1.92;;
27704;SDS011;15109;50.992;6.918;2022-10-18T18:01:12;6.00;;;2.40;;
27704;SDS011;15109;50.992;6.918;2022-10-18T18:04:36;5.05;;;2.15;;
27704;SDS011;15109;50.992;6.918;2022-10-18T18:07:57;7.10;;;1.83;;
27704;SDS011;15109;50.992;6.918;2022-10-18T18:11:18;3.42;;;1.80;;
27704;SDS011;15109;50.992;6.918;2022-10-18T18:14:39;4.07;;;2.03;;
27704;SDS011;15109;50.992;6.918;2022-10-18T18:18:00;4.30;;;2.05;;
27704;SDS011;15109;50.992;6.918;2022-10-18T18:21:21;4.15;;;2.05;;
27704;SDS011;15109;50.992;6.918;2022-10-18T18:24:43;3.28;;;1.88;;
27704;SDS011;15109;50.992;6.918;2022-10-18T18:28:04;4.88;;;2.45;;
27704;SDS011;15109;50.992;6.918;2022-10-18T18:31:25;7.22;;;2.67;;
27704;SDS011;15109;50.992;6.918;2022-10-18T18:34:46;4.88;;;3.00;;
27704;SDS011;15109;50.992;6.918;2022-10-18T18:38:07;4.07;;;2.10;;
27704;SDS011;15109;50.992;6.918;2022-10-18T18:41:28;4.93;;;2.75;;
27704;SDS011;15109;50.992;6.918;2022-10-18T18:44:49;5.15;;;3.10;;
27704;SDS011;15109;50.992;6.918;2022-10-18T18:48:10;4.15;;;2.20;;
27704;SDS011;15109;50.992;6.918;2022-10-18T18:51:31;4.75;;;2.40;;
27704;SDS011;15109;50.992;6.918;2022-10-18T18:54:53;6.22;;;3.78;;
27704;SDS011;15109;50.992;6.918;2022-10-18T18:58:14;4.25;;;2.75;;
27704;SDS011;15109;50.992;6.918;2022-10-18T19:01:36;10.93;;;4.65;;
27704;SDS011;15109;50.992;6.918;2022-10-18T19:04:57;7.75;;;3.92;;
27704;SDS011;15109;50.992;6.918;2022-10-18T19:08:18;12.75;;;4.22;;
27704;SDS011;15109;50.992;6.918;2022-10-18T19:11:39;8.32;;;3.63;;
27704;SDS011;15109;50.992;6.918;2022-10-18T19:15:00;6.10;;;3.53;;
27704;SDS011;15109;50.992;6.918;2022-10-18T19:18:21;5.90;;;3.10;;
27704;SDS011;15109;50.992;6.918;2022-10-18T19:21:43;5.30;;;3.35;;
27704;SDS011;15109;50.992;6.918;2022-10-18T19:25:07;10.40;;;4.38;;
27704;SDS011;15109;50.992;6.918;2022-10-18T19:28:28;7.05;;;2.78;;
27704;SDS011;15109;50.992;6.918;2022-10-18T19:31:49;11.35;;;3.70;;
27704;SDS011;15109;50.992;6.918;2022-10-18T19:35:15;5.95;;;3.47;;
27704;SDS011;15109;50.992;6.918;2022-10-18T19:38:36;5.47;;;3.20;;
27704;SDS011;15109;50.992;6.918;2022-10-18T19:41:57;7.88;;;4.15;;
27704;SDS011;15109;50.992;6.918;2022-10-18T19:45:20;10.80;;;4.18;;
27704;SDS011;15109;50.992;6.918;2022-10-18T19:48:41;16.27;;;4.88;;
27704;SDS011;15109;50.992;6.918;2022-10-18T19:52:02;8.00;;;4.22;;
27704;SDS011;15109;50.992;6.918;2022-10-18T19:55:23;6.15;;;3.70;;
27704;SDS011;15109;50.992;6.918;2022-10-18T19:58:44;13.45;;;5.10;;
27704;SDS011;15109;50.992;6.918;2022-10-18T20:02:08;8.98;;;4.68;;
27704;SDS011;15109;50.992;6.918;2022-10-18T20:08:54;10.43;;;3.65;;
27704;SDS011;15109;50.992;6.918;2022-10-18T20:12:15;11.25;;;4.15;;
27704;SDS011;15109;50.992;6.918;2022-10-18T20:15:36;6.38;;;3.03;;
27704;SDS011;15109;50.992;6.918;2022-10-18T20:18:58;5.03;;;2.90;;
27704;SDS011;15109;50.992;6.918;2022-10-18T20:22:23;7.13;;;3.75;;
27704;SDS011;15109;50.992;6.918;2022-10-18T20:25:57;7.82;;;4.07;;
27704;SDS011;15109;50.992;6.918;2022-10-18T20:29:22;10.95;;;5.47;;
27704;SDS011;15109;50.992;6.918;2022-10-18T20:32:45;17.27;;;6.05;;
27704;SDS011;15109;50.992;6.918;2022-10-18T20:39:31;17.65;;;6.55;;
27704;SDS011;15109;50.992;6.918;2022-10-18T20:42:54;12.55;;;6.07;;
27704;SDS011;15109;50.992;6.918;2022-10-18T20:46:15;11.60;;;5.47;;
27704;SDS011;15109;50.992;6.918;2022-10-18T20:49:36;11.25;;;4.72;;
27704;SDS011;15109;50.992;6.918;2022-10-18T20:52:57;12.68;;;6.47;;
27704;SDS011;15109;50.992;6.918;2022-10-18T20:56:19;13.90;;;6.28;;
27704;SDS011;15109;50.992;6.918;2022-10-18T20:59:42;15.82;;;7.60;;
27704;SDS011;15109;50.992;6.918;2022-10-18T21:03:03;22.30;;;7.05;;
27704;SDS011;15109;50.992;6.918;2022-10-18T21:06:25;13.98;;;6.18;;
27704;SDS011;15109;50.992;6.918;2022-10-18T21:09:47;11.40;;;5.63;;
27704;SDS011;15109;50.992;6.918;2022-10-18T21:13:09;15.90;;;6.13;;
27704;SDS011;15109;50.992;6.918;2022-10-18T21:16:30;11.15;;;5.47;;
27704;SDS011;15109;50.992;6.918;2022-10-18T21:19:53;10.07;;;5.43;;
27704;SDS011;15109;50.992;6.918;2022-10-18T21:23:14;12.52;;;4.60;;
27704;SDS011;15109;50.992;6.918;2022-10-18T21:26:35;13.73;;;6.32;;
27704;SDS011;15109;50.992;6.918;2022-10-18T21:29:56;11.27;;;5.78;;
27704;SDS011;15109;50.992;6.918;2022-10-18T21:33:17;21.75;;;7.15;;
27704;SDS011;15109;50.992;6.918;2022-10-18T21:36:39;15.75;;;6.38;;
27704;SDS011;15109;50.992;6.918;2022-10-18T21:40:01;10.90;;;4.75;;
27704;SDS011;15109;50.992;6.918;2022-10-18T21:43:22;11.02;;;5.40;;
27704;SDS011;15109;50.992;6.918;2022-10-18T21:46:43;10.70;;;5.22;;
27704;SDS011;15109;50.992;6.918;2022-10-18T21:50:06;8.98;;;4.60;;
27704;SDS011;15109;50.992;6.918;2022-10-18T21:53:30;15.50;;;4.35;;
27704;SDS011;15109;50.992;6.918;2022-10-18T21:56:52;10.40;;;4.40;;
27704;SDS011;15109;50.992;6.918;2022-10-18T22:00:13;7.65;;;3.83;;
27704;SDS011;15109;50.992;6.918;2022-10-18T22:03:35;6.50;;;3.95;;
27704;SDS011;15109;50.992;6.918;2022-10-18T22:06:56;6.78;;;3.50;;
27704;SDS011;15109;50.992;6.918;2022-10-18T22:10:19;7.68;;;4.43;;
27704;SDS011;15109;50.992;6.918;2022-10-18T22:13:40;11.20;;;3.90;;
27704;SDS011;15109;50.992;6.918;2022-10-18T22:17:01;10.43;;;3.83;;
27704;SDS011;15109;50.992;6.918;2022-10-18T22:20:22;6.65;;;3.53;;
27704;SDS011;15109;50.992;6.918;2022-10-18T22:23:44;11.43;;;4.03;;
27704;SDS011;15109;50.992;6.918;2022-10-18T22:27:07;5.97;;;2.92;;
27704;SDS011;15109;50.992;6.918;2022-10-18T22:30:34;6.57;;;2.95;;
27704;SDS011;15109;50.992;6.918;2022-10-18T22:33:59;8.27;;;3.78;;
27704;SDS011;15109;50.992;6.918;2022-10-18T22:37:24;5.82;;;2.88;;
27704;SDS011;15109;50.992;6.918;2022-10-18T22:40:45;3.58;;;1.95;;
27704;SDS011;15109;50.992;6.918;2022-10-18T22:44:06;3.85;;;2.55;;
27704;SDS011;15109;50.992;6.918;2022-10-18T22:47:28;6.95;;;2.72;;
27704;SDS011;15109;50.992;6.918;2022-10-18T22:50:49;5.07;;;3.00;;